createdAt,value
2022-12-29T00:00:09.572Z,101954.06
2022-12-29T00:02:44.553Z,101926.69
2022-12-29T00:05:14.020Z,102003.78
2022-12-29T00:07:43.508Z,102000.25
2022-12-29T00:10:11.608Z,101986.31
2022-12-29T00:12:57.001Z,102000.81
2022-12-29T00:15:39.027Z,101989.41
2022-12-29T00:18:06.368Z,102002.91
2022-12-29T00:20:57.512Z,101998.34
2022-12-29T00:23:43.657Z,101927.72
2022-12-29T00:26:39.189Z,101980.22
2022-12-29T00:29:28.135Z,101994.84
2022-12-29T00:32:17.365Z,101933.31
2022-12-29T00:35:03.301Z,101983.28
2022-12-29T00:37:49.047Z,101941.91
2022-12-29T00:40:37.098Z,101970.97
2022-12-29T00:43:28.604Z,101962.41
2022-12-29T00:45:56.055Z,101962.78
2022-12-29T00:48:44.036Z,101987.50
2022-12-29T00:51:20.774Z,101974.41
2022-12-29T00:53:47.469Z,101961.50
2022-12-29T00:56:14.306Z,101935.13
2022-12-29T00:58:40.979Z,101971.47
2022-12-29T01:01:10.089Z,101859.06
2022-12-29T01:03:38.450Z,101966.09
2022-12-29T01:06:10.001Z,101975.84
2022-12-29T01:08:40.750Z,101967.88
2022-12-29T01:11:10.365Z,101934.84
2022-12-29T01:13:39.248Z,101970.06
2022-12-29T01:16:09.173Z,101888.59
2022-12-29T01:18:36.098Z,101908.88
2022-12-29T01:21:05.257Z,101906.97
2022-12-29T01:23:34.363Z,101967.69
2022-12-29T01:26:12.426Z,101950.81
2022-12-29T01:28:42.631Z,101963.34
2022-12-29T01:31:11.048Z,101953.66
2022-12-29T01:33:37.921Z,101932.78
2022-12-29T01:36:06.657Z,101830.16
2022-12-29T01:38:35.837Z,101976.78
2022-12-29T01:41:06.221Z,101888.59
2022-12-29T01:43:44.552Z,101976.53
2022-12-29T01:46:21.708Z,101982.91
2022-12-29T01:48:50.525Z,101988.00
2022-12-29T01:51:17.899Z,101977.88
2022-12-29T01:53:46.045Z,101944.00
2022-12-29T01:56:24.989Z,101959.72
2022-12-29T01:59:00.128Z,101989.69
2022-12-29T02:01:28.269Z,101965.53
2022-12-29T02:03:58.134Z,101971.78
2022-12-29T02:06:36.617Z,101929.75
2022-12-29T02:09:09.588Z,101951.03
2022-12-29T02:11:37.464Z,101960.63
2022-12-29T02:14:10.334Z,101961.59
2022-12-29T02:20:04.785Z,101969.56
2022-12-29T02:23:13.001Z,101970.63
2022-12-29T02:26:09.175Z,101964.25
2022-12-29T02:28:57.809Z,101959.25
2022-12-29T02:31:30.577Z,101955.09
2022-12-29T02:34:34.611Z,101944.06
2022-12-29T02:37:12.769Z,101893.50
2022-12-29T02:40:00.005Z,101947.88
2022-12-29T02:42:40.972Z,101940.22
2022-12-29T02:45:27.650Z,101930.19
2022-12-29T02:48:15.572Z,101934.25
2022-12-29T02:50:51.987Z,101951.50
2022-12-29T02:53:42.597Z,101948.66
2022-12-29T02:56:10.227Z,101950.72
2022-12-29T02:58:36.980Z,101912.72
2022-12-29T03:02:10.973Z,101917.78
2022-12-29T03:05:15.819Z,101913.25
2022-12-29T03:07:48.396Z,101921.53
2022-12-29T03:10:42.003Z,101918.44
2022-12-29T03:14:09.335Z,101902.63
2022-12-29T03:16:50.654Z,101911.38
2022-12-29T03:19:47.556Z,101906.91
2022-12-29T03:22:37.050Z,101888.00
2022-12-29T03:25:17.355Z,101902.34
2022-12-29T03:27:54.502Z,101882.56
2022-12-29T03:30:21.505Z,101876.81
2022-12-29T03:32:59.046Z,101802.16
2022-12-29T03:35:29.097Z,101897.69
2022-12-29T03:38:18.518Z,101789.00
2022-12-29T03:40:50.779Z,101904.25
2022-12-29T03:43:19.074Z,101903.34
2022-12-29T03:45:46.049Z,101885.88
2022-12-29T03:48:13.020Z,101876.09
2022-12-29T03:50:39.716Z,101892.66
2022-12-29T03:53:06.470Z,101906.16
2022-12-29T03:55:33.183Z,101899.22
2022-12-29T03:58:00.557Z,101828.72
2022-12-29T04:00:27.256Z,101888.50
2022-12-29T04:02:54.038Z,101899.38
2022-12-29T04:05:26.089Z,101878.53
2022-12-29T04:07:52.832Z,101883.25
2022-12-29T04:10:19.726Z,101890.72
2022-12-29T04:12:47.686Z,101852.72
2022-12-29T04:15:14.560Z,101894.47
2022-12-29T04:17:49.950Z,101875.03
2022-12-29T04:20:36.506Z,101892.75
2022-12-29T04:23:19.850Z,101881.63
2022-12-29T04:25:48.504Z,101886.50
2022-12-29T04:28:18.809Z,101887.78
2022-12-29T04:30:46.943Z,101881.59
2022-12-29T04:33:17.180Z,101845.44
2022-12-29T04:35:46.219Z,101857.72
2022-12-29T04:38:13.102Z,101865.88
2022-12-29T04:40:41.488Z,101840.78
2022-12-29T04:43:09.241Z,101901.25
2022-12-29T04:45:40.421Z,101887.66
2022-12-29T04:48:07.572Z,101872.78
2022-12-29T04:50:34.299Z,101914.22
2022-12-29T04:53:01.708Z,101861.56
2022-12-29T04:55:31.433Z,101921.41
2022-12-29T04:58:01.320Z,101921.63
2022-12-29T05:00:28.162Z,101897.28
2022-12-29T05:03:01.602Z,101832.88
2022-12-29T05:05:28.403Z,101917.84
2022-12-29T05:07:55.149Z,101858.50
2022-12-29T05:10:30.470Z,101918.56
2022-12-29T05:12:57.056Z,101890.84
2022-12-29T05:15:32.864Z,101888.00
2022-12-29T05:18:00.002Z,101870.97
2022-12-29T05:20:26.665Z,101892.59
2022-12-29T05:22:53.321Z,101893.25
2022-12-29T05:25:20.005Z,101839.75
2022-12-29T05:27:46.788Z,101862.91
2022-12-29T05:30:13.777Z,101895.22
2022-12-29T05:32:41.001Z,101897.09
2022-12-29T05:35:08.200Z,101908.13
2022-12-29T05:37:38.050Z,101870.13
2022-12-29T05:40:05.363Z,101901.34
2022-12-29T05:42:31.996Z,101904.88
2022-12-29T05:44:59.429Z,101880.25
2022-12-29T05:47:27.344Z,101930.09
2022-12-29T05:49:54.032Z,101920.94
2022-12-29T05:52:20.783Z,101918.81
2022-12-29T05:54:47.524Z,101916.38
2022-12-29T05:57:20.313Z,101911.16
2022-12-29T05:59:47.054Z,101916.84
2022-12-29T06:02:20.793Z,101916.41
2022-12-29T06:04:47.507Z,101834.03
2022-12-29T06:07:14.245Z,101823.28
2022-12-29T06:09:40.921Z,101929.19
2022-12-29T06:12:07.888Z,101871.50
2022-12-29T06:14:34.617Z,101891.09
2022-12-29T06:17:03.901Z,101920.69
2022-12-29T06:19:36.844Z,101854.31
2022-12-29T06:22:03.981Z,101894.78
2022-12-29T06:24:37.931Z,101914.03
2022-12-29T06:27:11.706Z,101922.22
2022-12-29T06:29:43.128Z,101920.72
2022-12-29T06:32:10.187Z,101914.03
2022-12-29T06:34:38.975Z,101884.47
2022-12-29T06:37:05.964Z,101918.38
2022-12-29T06:39:32.744Z,101920.63
2022-12-29T06:41:59.486Z,101875.13
2022-12-29T06:44:28.697Z,101927.00
2022-12-29T06:46:55.736Z,101927.59
2022-12-29T06:49:25.413Z,101928.75
2022-12-29T06:51:52.091Z,101944.47
2022-12-29T06:54:18.716Z,101939.16
2022-12-29T06:56:48.474Z,101941.28
2022-12-29T06:59:15.189Z,101935.75
2022-12-29T07:01:41.963Z,101900.84
2022-12-29T07:04:08.747Z,101939.28
2022-12-29T07:06:35.564Z,101918.47
2022-12-29T07:09:02.233Z,101941.22
2022-12-29T07:11:28.980Z,101917.47
2022-12-29T07:14:02.039Z,101926.47
2022-12-29T07:16:30.440Z,101913.81
2022-12-29T07:18:58.093Z,101945.44
2022-12-29T07:21:24.847Z,101954.78
2022-12-29T07:23:53.562Z,101941.34
2022-12-29T07:26:22.025Z,101960.38
2022-12-29T07:28:52.126Z,101954.47
2022-12-29T07:31:21.647Z,101946.22
2022-12-29T07:33:57.450Z,101876.84
2022-12-29T07:36:26.067Z,101965.72
2022-12-29T07:38:56.261Z,101950.22
2022-12-29T07:41:23.205Z,101939.25
2022-12-29T07:43:49.984Z,101967.63
2022-12-29T07:46:54.219Z,101914.41
2022-12-29T07:49:03.429Z,101961.13
2022-12-29T07:51:30.137Z,101973.91
2022-12-29T07:53:56.791Z,101971.78
2022-12-29T07:56:23.487Z,101922.47
2022-12-29T07:58:50.362Z,101932.56
2022-12-29T08:01:17.315Z,101971.06
2022-12-29T08:03:44.118Z,101974.47
2022-12-29T08:06:13.959Z,101972.31
2022-12-29T08:08:44.055Z,101958.03
2022-12-29T08:11:10.815Z,101935.53
2022-12-29T08:13:37.616Z,101912.72
2022-12-29T08:16:04.634Z,101979.16
2022-12-29T08:18:35.597Z,101961.81
2022-12-29T08:21:05.764Z,101946.47
2022-12-29T08:23:35.654Z,101979.78
2022-12-29T08:26:09.291Z,101966.44
2022-12-29T08:28:35.979Z,101961.44
2022-12-29T08:31:04.147Z,101953.28
2022-12-29T08:33:31.399Z,101962.84
2022-12-29T08:36:06.009Z,101966.72
2022-12-29T08:38:33.718Z,101950.00
2022-12-29T08:41:10.465Z,101977.69
2022-12-29T08:43:39.058Z,101979.66
2022-12-29T08:46:05.833Z,101881.22
2022-12-29T08:48:32.584Z,101968.31
2022-12-29T08:50:59.283Z,101969.16
2022-12-29T08:53:26.497Z,101964.03
2022-12-29T08:56:04.037Z,101804.09
2022-12-29T08:58:32.046Z,101954.31
2022-12-29T09:00:59.776Z,101964.94
2022-12-29T09:03:54.925Z,101990.13
2022-12-29T09:06:15.140Z,101982.16
2022-12-29T09:08:45.569Z,102001.28
2022-12-29T09:11:19.033Z,101990.66
2022-12-29T09:13:46.344Z,101963.84
2022-12-29T09:16:15.769Z,101952.47
2022-12-29T09:18:43.304Z,101967.88
2022-12-29T09:21:12.041Z,101976.38
2022-12-29T09:23:39.502Z,102000.09
2022-12-29T09:26:06.756Z,101992.97
2022-12-29T09:28:39.715Z,102009.75
2022-12-29T09:31:06.708Z,101993.44
2022-12-29T09:33:39.352Z,101951.63
2022-12-29T09:36:06.382Z,101985.34
2022-12-29T09:38:33.333Z,101999.56
2022-12-29T09:41:23.089Z,102007.41
2022-12-29T09:44:01.920Z,101983.03
2022-12-29T09:46:50.978Z,101997.03
2022-12-29T09:49:27.410Z,102003.75
2022-12-29T09:51:59.266Z,101862.50
2022-12-29T09:54:39.508Z,101940.59
2022-12-29T09:57:18.865Z,101963.44
2022-12-29T09:59:47.515Z,102007.88
2022-12-29T10:02:41.402Z,101983.22
2022-12-29T10:05:28.096Z,101987.84
2022-12-29T10:08:22.580Z,101968.81
2022-12-29T10:11:16.518Z,101982.72
2022-12-29T10:14:16.293Z,101984.22
2022-12-29T10:16:46.173Z,101981.66
2022-12-29T10:19:35.305Z,101985.41
2022-12-29T10:22:30.388Z,101915.41
2022-12-29T10:25:03.878Z,101985.78
2022-12-29T10:27:35.694Z,101974.69
2022-12-29T10:30:03.778Z,101965.34
2022-12-29T10:32:48.099Z,101972.38
2022-12-29T10:35:17.504Z,101977.16
2022-12-29T10:38:08.905Z,101982.69
2022-12-29T10:40:46.469Z,101974.03
2022-12-29T10:43:36.471Z,101968.28
2022-12-29T10:46:10.792Z,101969.13
2022-12-29T10:48:37.742Z,101960.53
2022-12-29T10:51:07.419Z,101944.00
2022-12-29T10:53:51.525Z,101927.19
2022-12-29T10:56:30.736Z,101929.75
2022-12-29T10:59:04.407Z,101941.34
2022-12-29T11:01:52.345Z,101936.03
2022-12-29T11:04:29.602Z,101828.13
2022-12-29T11:06:58.635Z,101947.34
2022-12-29T11:09:42.181Z,101950.66
2022-12-29T11:12:30.204Z,101955.97
2022-12-29T11:15:09.071Z,101953.78
2022-12-29T11:18:00.681Z,101953.78
2022-12-29T11:20:40.625Z,101948.94
2022-12-29T11:23:26.200Z,101928.31
2022-12-29T11:26:16.612Z,101934.94
2022-12-29T11:28:49.513Z,101899.25
2022-12-29T11:31:23.021Z,101895.44
2022-12-29T11:33:52.970Z,101838.59
2022-12-29T11:36:27.828Z,101831.16
2022-12-29T11:38:56.673Z,101916.03
2022-12-29T11:41:30.804Z,101923.69
2022-12-29T11:44:02.584Z,101899.38
2022-12-29T11:46:39.336Z,101901.13
2022-12-29T11:49:07.131Z,101899.16
2022-12-29T11:51:47.832Z,101896.47
2022-12-29T11:54:47.495Z,101900.28
2022-12-29T11:57:18.424Z,101894.41
2022-12-29T11:59:53.325Z,101886.81
2022-12-29T12:02:42.956Z,101766.44
2022-12-29T12:05:16.964Z,101864.97
2022-12-29T12:07:48.093Z,101888.28
2022-12-29T12:10:23.756Z,101877.44
2022-12-29T12:13:17.470Z,101868.78
2022-12-29T12:15:56.122Z,101833.47
2022-12-29T12:19:11.149Z,101868.28
2022-12-29T12:21:47.687Z,101847.41
2022-12-29T12:24:52.295Z,101850.28
2022-12-29T12:27:27.476Z,101865.78
2022-12-29T12:30:04.518Z,101849.81
2022-12-29T12:32:46.752Z,101853.56
2022-12-29T12:35:29.715Z,101833.97
2022-12-29T12:38:02.509Z,101862.72
2022-12-29T12:40:53.889Z,101851.41
2022-12-29T12:43:29.776Z,101850.88
2022-12-29T12:46:29.057Z,101854.59
2022-12-29T12:49:22.377Z,101761.72
2022-12-29T12:52:32.636Z,101810.78
2022-12-29T12:55:11.675Z,101839.09
2022-12-29T12:57:46.647Z,101839.50
2022-12-29T13:00:21.411Z,101704.91
2022-12-29T13:03:03.410Z,101832.41
2022-12-29T13:05:49.075Z,101830.28
2022-12-29T13:08:37.006Z,101826.47
2022-12-29T13:11:15.893Z,101827.59
2022-12-29T13:13:57.855Z,101805.63
2022-12-29T13:16:42.640Z,101822.81
2022-12-29T13:19:22.177Z,101827.28
2022-12-29T13:22:26.219Z,101792.38
2022-12-29T13:24:52.930Z,101749.88
2022-12-29T13:27:39.636Z,101801.34
2022-12-29T13:30:15.427Z,101827.78
2022-12-29T13:32:51.212Z,101827.63
2022-12-29T13:36:02.468Z,101835.13
2022-12-29T13:38:49.758Z,101822.66
2022-12-29T13:41:35.291Z,101810.25
2022-12-29T13:44:04.469Z,101792.88
2022-12-29T13:46:40.805Z,101834.16
2022-12-29T13:49:21.138Z,101837.38
2022-12-29T13:51:54.122Z,101829.41
2022-12-29T13:54:28.601Z,101841.63
2022-12-29T13:57:16.395Z,101847.16
2022-12-29T14:00:00.635Z,101844.16
2022-12-29T14:03:04.256Z,101844.81
2022-12-29T14:05:34.886Z,101817.22
2022-12-29T14:08:08.252Z,101856.47
2022-12-29T14:10:53.429Z,101845.94
2022-12-29T14:13:24.721Z,101779.16
2022-12-29T14:15:59.053Z,101777.94
2022-12-29T14:18:32.741Z,101837.19
2022-12-29T14:21:11.579Z,101803.78
2022-12-29T14:23:49.687Z,101849.81
2022-12-29T14:26:36.601Z,101840.97
2022-12-29T14:29:25.499Z,101836.88
2022-12-29T14:31:53.789Z,101815.44
2022-12-29T14:34:35.001Z,101842.03
2022-12-29T14:37:06.144Z,101829.94
2022-12-29T14:39:47.356Z,101847.84
2022-12-29T14:42:18.570Z,101814.97
2022-12-29T14:44:48.565Z,101829.88
2022-12-29T14:47:38.031Z,101836.06
2022-12-29T14:50:26.522Z,101812.50
2022-12-29T14:53:04.701Z,101832.00
2022-12-29T14:55:53.228Z,101707.25
2022-12-29T14:58:29.091Z,101826.03
2022-12-29T15:00:59.578Z,101833.09
2022-12-29T15:03:33.132Z,101836.53
2022-12-29T15:06:09.392Z,101771.03
2022-12-29T15:08:50.247Z,101802.53
2022-12-29T15:11:31.661Z,101795.56
2022-12-29T15:13:58.338Z,101821.72
2022-12-29T15:16:24.986Z,101821.84
2022-12-29T15:18:55.089Z,101823.78
2022-12-29T15:21:27.331Z,101712.28
2022-12-29T15:24:06.154Z,101818.53
2022-12-29T15:26:45.154Z,101826.84
2022-12-29T15:29:33.486Z,101826.94
2022-12-29T15:32:02.333Z,101827.97
2022-12-29T15:34:35.592Z,101819.78
2022-12-29T15:37:07.518Z,101743.50
2022-12-29T15:39:37.993Z,101821.47
2022-12-29T15:42:17.582Z,101819.63
2022-12-29T15:44:45.738Z,101812.03
2022-12-29T15:47:22.017Z,101824.88
2022-12-29T15:49:54.956Z,101816.38
2022-12-29T15:52:24.730Z,101807.19
2022-12-29T15:54:56.650Z,101814.69
2022-12-29T16:03:25.605Z,101802.75
2022-12-29T16:05:57.969Z,101809.75
2022-12-29T16:08:41.038Z,101798.56
2022-12-29T16:11:27.096Z,101801.84
2022-12-29T16:13:56.013Z,101776.13
2022-12-29T16:16:42.398Z,101786.09
2022-12-29T16:19:22.678Z,101788.72
2022-12-29T16:21:49.711Z,101794.06
2022-12-29T16:24:19.828Z,101672.44
2022-12-29T16:26:50.309Z,101796.28
2022-12-29T16:29:22.797Z,101781.63
2022-12-29T16:32:06.476Z,101810.47
2022-12-29T16:34:41.102Z,101817.84
2022-12-29T16:37:28.832Z,101812.50
2022-12-29T16:39:59.637Z,101804.00
2022-12-29T16:42:40.013Z,101812.63
2022-12-29T16:45:24.873Z,101809.28
2022-12-29T16:48:06.795Z,101806.19
2022-12-29T16:50:43.976Z,101778.84
2022-12-29T16:53:41.777Z,101666.94
2022-12-29T16:56:20.976Z,101807.19
2022-12-29T16:59:09.179Z,101797.94
2022-12-29T17:01:41.450Z,101803.06
2022-12-29T17:04:13.855Z,101742.47
2022-12-29T17:06:41.708Z,101803.56
2022-12-29T17:09:31.639Z,101781.97
2022-12-29T17:12:10.865Z,101781.50
2022-12-29T17:14:45.683Z,101791.69
2022-12-29T17:17:35.514Z,101765.19
2022-12-29T17:20:06.439Z,101795.56
2022-12-29T17:22:40.036Z,101790.34
2022-12-29T17:25:08.287Z,101805.00
2022-12-29T17:27:43.017Z,101780.72
2022-12-29T17:30:18.873Z,101775.94
2022-12-29T17:32:54.180Z,101771.44
2022-12-29T17:35:24.459Z,101781.22
2022-12-29T17:37:57.428Z,101792.88
2022-12-29T17:40:33.616Z,101786.06
2022-12-29T17:43:03.411Z,101798.44
2022-12-29T17:45:34.221Z,101794.81
2022-12-29T17:48:02.141Z,101776.84
2022-12-29T17:50:31.552Z,101802.47
2022-12-29T17:53:15.646Z,101783.66
2022-12-29T17:55:43.101Z,101765.72
2022-12-29T17:58:34.684Z,101810.75
2022-12-29T18:01:02.730Z,101747.84
2022-12-29T18:03:36.022Z,101788.25
2022-12-29T18:06:06.792Z,101809.22
2022-12-29T18:08:35.486Z,101778.56
2022-12-29T18:11:23.360Z,101713.22
2022-12-29T18:13:53.269Z,101803.31
2022-12-29T18:16:21.885Z,101773.25
2022-12-29T18:18:48.599Z,101764.31
2022-12-29T18:21:18.971Z,101775.88
2022-12-29T18:23:46.894Z,101761.72
2022-12-29T18:26:27.771Z,101789.34
2022-12-29T18:28:56.112Z,101790.50
2022-12-29T18:31:31.825Z,101795.38
2022-12-29T18:34:01.091Z,101781.44
2022-12-29T18:36:28.055Z,101789.88
2022-12-29T18:38:55.618Z,101738.06
2022-12-29T18:41:32.261Z,101781.13
2022-12-29T18:44:07.031Z,101775.06
2022-12-29T18:46:34.421Z,101791.88
2022-12-29T18:49:01.108Z,101783.28
2022-12-29T18:51:28.043Z,101795.75
2022-12-29T18:53:55.010Z,101777.25
2022-12-29T18:56:27.343Z,101678.84
2022-12-29T18:58:57.761Z,101716.91
2022-12-29T19:01:33.065Z,101794.31
2022-12-29T19:03:59.967Z,101770.53
2022-12-29T19:06:29.380Z,101760.03
2022-12-29T19:08:56.463Z,101794.00
2022-12-29T19:11:24.558Z,101787.16
2022-12-29T19:13:53.382Z,101748.97
2022-12-29T19:16:27.044Z,101758.97
2022-12-29T19:19:09.027Z,101800.34
2022-12-29T19:21:38.926Z,101773.06
2022-12-29T19:24:06.183Z,101769.00
2022-12-29T19:26:37.715Z,101757.13
2022-12-29T19:29:11.786Z,101791.88
2022-12-29T19:31:41.365Z,101798.13
2022-12-29T19:34:08.428Z,101799.47
2022-12-29T19:36:35.486Z,101784.88
2022-12-29T19:39:06.816Z,101784.81
2022-12-29T19:41:33.558Z,101768.84
2022-12-29T19:44:04.409Z,101823.19
2022-12-29T19:46:35.263Z,101773.91
2022-12-29T19:49:02.510Z,101806.00
2022-12-29T19:51:29.259Z,101727.81
2022-12-29T19:53:56.180Z,101817.41
2022-12-29T19:56:23.509Z,101632.09
2022-12-29T19:58:51.113Z,101814.16
2022-12-29T20:01:25.766Z,101780.44
2022-12-29T20:03:52.920Z,101819.47
2022-12-29T20:06:20.139Z,101783.53
2022-12-29T20:08:47.176Z,101813.34
2022-12-29T20:11:18.384Z,101816.09
2022-12-29T20:13:45.967Z,101799.47
2022-12-29T20:16:19.343Z,101816.47
2022-12-29T20:18:49.407Z,101812.69
2022-12-29T20:21:25.665Z,101805.81
2022-12-29T20:23:58.964Z,101803.16
2022-12-29T20:26:28.939Z,101823.13
2022-12-29T20:28:58.175Z,101843.09
2022-12-29T20:31:29.631Z,101820.69
2022-12-29T20:33:58.863Z,101828.88
2022-12-29T20:36:31.376Z,101782.38
2022-12-29T20:39:00.580Z,101733.94
2022-12-29T20:41:31.344Z,101828.00
2022-12-29T20:44:01.217Z,101764.13
2022-12-29T20:46:35.046Z,101820.00
2022-12-29T20:49:07.584Z,101796.94
2022-12-29T20:52:04.338Z,101765.25
2022-12-29T20:54:24.625Z,101811.13
2022-12-29T20:56:52.563Z,101808.91
2022-12-29T20:59:27.801Z,101757.78
2022-12-29T21:01:56.569Z,101814.19
2022-12-29T21:04:26.501Z,101758.59
2022-12-29T21:06:53.390Z,101808.19
2022-12-29T21:09:25.905Z,101810.56
2022-12-29T21:11:52.964Z,101811.91
2022-12-29T21:14:19.643Z,101801.69
2022-12-29T21:16:50.154Z,101785.88
2022-12-29T21:19:26.395Z,101780.47
2022-12-29T21:21:54.036Z,101768.53
2022-12-29T21:24:26.309Z,101792.84
2022-12-29T21:26:53.298Z,101784.69
2022-12-29T21:29:20.153Z,101757.06
2022-12-29T21:31:49.856Z,101771.72
2022-12-29T21:34:16.620Z,101775.09
2022-12-29T21:36:43.343Z,101783.81
2022-12-29T21:39:10.522Z,101762.34
2022-12-29T21:41:37.261Z,101774.22
2022-12-29T21:44:23.128Z,101667.03
2022-12-29T21:46:52.046Z,101782.72
2022-12-29T21:49:18.853Z,101743.50
2022-12-29T21:51:51.774Z,101744.47
2022-12-29T21:54:48.234Z,101785.13
2022-12-29T21:57:40.309Z,101783.91
2022-12-29T22:00:27.774Z,101780.78
2022-12-29T22:03:23.012Z,101782.13
2022-12-29T22:06:17.379Z,101744.09
2022-12-29T22:09:03.923Z,101753.16
2022-12-29T22:11:48.916Z,101770.91
2022-12-29T22:14:15.623Z,101716.91
2022-12-29T22:16:42.319Z,101676.91
2022-12-29T22:19:15.477Z,101743.69
2022-12-29T22:21:42.713Z,101748.53
2022-12-29T22:24:10.045Z,101716.81
2022-12-29T22:26:36.651Z,101720.88
2022-12-29T22:29:14.458Z,101752.72
2022-12-29T22:31:43.446Z,101734.66
2022-12-29T22:34:11.565Z,101699.84
2022-12-29T22:36:41.321Z,101739.91
2022-12-29T22:39:08.855Z,101718.91
2022-12-29T22:41:37.033Z,101719.97
2022-12-29T22:44:05.184Z,101724.84
2022-12-29T22:46:31.970Z,101702.09
2022-12-29T22:48:59.875Z,101720.28
2022-12-29T22:51:26.743Z,101746.97
2022-12-29T22:53:53.939Z,101743.00
2022-12-29T22:56:20.688Z,101742.47
2022-12-29T22:58:48.569Z,101746.88
2022-12-29T23:01:17.627Z,101727.69
2022-12-29T23:03:44.972Z,101734.13
2022-12-29T23:06:16.440Z,101731.19
2022-12-29T23:08:44.133Z,101656.63
2022-12-29T23:11:13.087Z,101723.88
2022-12-29T23:13:41.193Z,101737.19
2022-12-29T23:16:10.483Z,101724.00
2022-12-29T23:18:40.514Z,101722.31
2022-12-29T23:21:08.146Z,101740.59
2022-12-29T23:23:58.346Z,101707.66
2022-12-29T23:26:33.884Z,101717.44
2022-12-29T23:29:03.194Z,101668.94
2022-12-29T23:31:33.782Z,101703.78
2022-12-29T23:34:02.881Z,101710.22
2022-12-29T23:36:32.511Z,101717.22
2022-12-29T23:38:59.799Z,101697.38
2022-12-29T23:41:27.325Z,101714.16
2022-12-29T23:44:00.251Z,101708.34
2022-12-29T23:46:33.658Z,101676.91
2022-12-29T23:49:00.657Z,101666.50
2022-12-29T23:51:28.680Z,101639.31
2022-12-29T23:53:55.537Z,101698.66
2022-12-29T23:56:23.342Z,101706.81
2022-12-29T23:58:51.426Z,101676.84
